Time;durP1;ratioP1;P1;durP2;ratioP2;P2;SDS_P1;SDS_P2;PMS_P1;PMS_P2;Temp;Humidity;BMP_temperature;BMP_pressure;BME280_temperature;BME280_humidity;BME280_pressure;Samples;Min_cycle;Max_cycle;Signal;HPM_P1;HPM_P2
2023/07/29 00:02:58;;;;;;;7.27;3.80;;;;;;;;;;12984650;22;20412;-92
2023/07/29 00:08:00;;;;;;;5.97;4.70;;;;;;;;;;12984643;22;20362;-92
2023/07/29 00:13:04;;;;;;;5.55;5.00;;;;;;;;;;12984880;22;20901;-93
2023/07/29 00:18:07;;;;;;;8.60;5.85;;;;;;;;;;12984626;22;20398;-92
2023/07/29 00:23:09;;;;;;;7.82;5.32;;;;;;;;;;13005632;22;20375;-92
2023/07/29 00:28:13;;;;;;;7.75;5.03;;;;;;;;;;12984649;22;20448;-93
2023/07/29 00:33:16;;;;;;;7.00;5.40;;;;;;;;;;12984450;22;20402;-90
2023/07/29 00:38:18;;;;;;;5.97;5.47;;;;;;;;;;12983236;22;20359;-92
2023/07/29 00:43:22;;;;;;;6.00;5.05;;;;;;;;;;13006884;22;20378;-92
2023/07/29 00:48:25;;;;;;;6.90;4.50;;;;;;;;;;13000269;22;20363;-95
2023/07/29 00:53:27;;;;;;;5.70;4.10;;;;;;;;;;12921681;23;20836;-94
2023/07/29 00:58:31;;;;;;;5.32;4.43;;;;;;;;;;12920561;23;20423;-95
2023/07/29 01:03:34;;;;;;;5.40;4.40;;;;;;;;;;12917474;23;20392;-94
2023/07/29 01:08:43;;;;;;;6.30;4.47;;;;;;;;;;12916597;23;20365;-95
2023/07/29 01:13:54;;;;;;;8.07;5.13;;;;;;;;;;12920260;23;20373;-95
2023/07/29 01:18:57;;;;;;;6.27;5.03;;;;;;;;;;12920341;23;20886;-94
2023/07/29 01:24:01;;;;;;;8.50;5.00;;;;;;;;;;12919462;23;20388;-95
2023/07/29 01:29:03;;;;;;;5.22;4.60;;;;;;;;;;12920976;23;20407;-94
2023/07/29 01:34:11;;;;;;;5.88;5.28;;;;;;;;;;12919752;23;20368;-95
2023/07/29 01:39:16;;;;;;;7.32;5.72;;;;;;;;;;12920269;23;20368;-93
2023/07/29 01:44:19;;;;;;;8.07;5.38;;;;;;;;;;12943390;23;20450;-94
2023/07/29 01:49:22;;;;;;;6.20;5.57;;;;;;;;;;12932683;22;20366;-94
2023/07/29 01:54:26;;;;;;;6.28;5.40;;;;;;;;;;12982776;22;20682;-94
2023/07/29 01:59:28;;;;;;;7.27;5.20;;;;;;;;;;12982478;22;20480;-94
2023/07/29 02:04:30;;;;;;;10.90;6.10;;;;;;;;;;12981875;22;20417;-95
2023/07/29 02:09:34;;;;;;;6.28;5.22;;;;;;;;;;13003053;22;20362;-94
2023/07/29 02:14:36;;;;;;;6.85;5.25;;;;;;;;;;12996411;22;20362;-94
2023/07/29 02:19:39;;;;;;;6.35;5.15;;;;;;;;;;13004127;22;20354;-94
2023/07/29 02:24:42;;;;;;;5.90;5.40;;;;;;;;;;12982061;22;20378;-95
2023/07/29 02:29:45;;;;;;;9.75;5.50;;;;;;;;;;12983144;22;20819;-95
2023/07/29 02:34:47;;;;;;;6.97;5.47;;;;;;;;;;12982375;22;20363;-94
2023/07/29 02:39:51;;;;;;;6.65;5.50;;;;;;;;;;12982169;22;20355;-95
2023/07/29 02:44:54;;;;;;;6.18;5.57;;;;;;;;;;12986427;22;20386;-95
2023/07/29 02:49:56;;;;;;;6.80;6.20;;;;;;;;;;12986105;22;20366;-96
2023/07/29 02:55:00;;;;;;;7.00;6.15;;;;;;;;;;12984826;22;20358;-95
2023/07/29 03:00:03;;;;;;;8.30;5.90;;;;;;;;;;12986666;22;20417;-93
2023/07/29 03:05:06;;;;;;;6.88;6.10;;;;;;;;;;12985718;22;20387;-94
2023/07/29 03:10:10;;;;;;;7.15;6.45;;;;;;;;;;12986357;22;20363;-95
2023/07/29 03:15:13;;;;;;;7.60;6.43;;;;;;;;;;12986686;22;20358;-95
2023/07/29 03:20:17;;;;;;;7.45;6.35;;;;;;;;;;12986279;22;20366;-94
2023/07/29 03:25:21;;;;;;;7.70;6.50;;;;;;;;;;12986423;22;20382;-94
2023/07/29 03:30:23;;;;;;;7.53;6.40;;;;;;;;;;12985703;22;20358;-95
2023/07/29 03:35:26;;;;;;;9.88;6.82;;;;;;;;;;12985509;22;20367;-95
2023/07/29 03:40:29;;;;;;;10.10;6.90;;;;;;;;;;12985638;22;20359;-96
2023/07/29 03:45:32;;;;;;;9.43;7.00;;;;;;;;;;12985249;22;20379;-95
2023/07/29 03:50:35;;;;;;;8.10;6.33;;;;;;;;;;12985448;22;20362;-94
2023/07/29 03:55:39;;;;;;;6.47;5.87;;;;;;;;;;12985407;22;20421;-94
2023/07/29 04:00:41;;;;;;;7.27;6.57;;;;;;;;;;12985052;22;20363;-95
2023/07/29 04:05:43;;;;;;;7.65;6.25;;;;;;;;;;12985298;22;20916;-94
2023/07/29 04:10:47;;;;;;;8.35;6.53;;;;;;;;;;12985067;22;20425;-95
2023/07/29 04:15:49;;;;;;;7.82;6.25;;;;;;;;;;12984384;22;20386;-96
2023/07/29 04:20:52;;;;;;;7.10;5.80;;;;;;;;;;12985765;22;20676;-94
2023/07/29 04:25:56;;;;;;;6.50;5.90;;;;;;;;;;12984588;22;20410;-95
2023/07/29 04:30:58;;;;;;;6.83;5.87;;;;;;;;;;12984468;22;20389;-94
2023/07/29 04:36:00;;;;;;;6.97;5.80;;;;;;;;;;12986124;22;20398;-95
2023/07/29 04:41:06;;;;;;;7.70;5.68;;;;;;;;;;12980800;22;20366;-95
2023/07/29 04:46:09;;;;;;;8.57;5.70;;;;;;;;;;12981016;22;20413;-95
2023/07/29 04:51:11;;;;;;;7.32;5.05;;;;;;;;;;12982307;22;20367;-94
2023/07/29 04:56:15;;;;;;;5.67;4.67;;;;;;;;;;13004446;22;20429;-94
2023/07/29 05:01:18;;;;;;;5.25;4.13;;;;;;;;;;12981538;22;20355;-94
2023/07/29 05:06:20;;;;;;;6.70;4.23;;;;;;;;;;12981339;22;20417;-95
2023/07/29 05:11:25;;;;;;;4.55;4.13;;;;;;;;;;12982655;22;20358;-95
2023/07/29 05:16:27;;;;;;;5.90;3.78;;;;;;;;;;13002686;22;20738;-94
2023/07/29 05:21:29;;;;;;;6.18;4.80;;;;;;;;;;12981122;22;20433;-95
2023/07/29 05:26:33;;;;;;;5.40;4.90;;;;;;;;;;12982626;22;20363;-94
2023/07/29 05:31:35;;;;;;;7.88;5.40;;;;;;;;;;12982647;22;20370;-95
2023/07/29 05:36:39;;;;;;;6.97;4.80;;;;;;;;;;12983733;22;20421;-94
2023/07/29 05:41:42;;;;;;;5.37;4.70;;;;;;;;;;12982890;22;20362;-94
2023/07/29 05:46:45;;;;;;;5.80;4.83;;;;;;;;;;12982472;22;20429;-94
2023/07/29 05:51:47;;;;;;;8.18;5.32;;;;;;;;;;12982206;22;20432;-95
2023/07/29 05:56:51;;;;;;;5.75;4.97;;;;;;;;;;13004424;22;20363;-95
2023/07/29 06:01:53;;;;;;;6.38;5.35;;;;;;;;;;12981638;22;20363;-95
2023/07/29 06:06:56;;;;;;;5.18;4.68;;;;;;;;;;12984684;22;20538;-95
2023/07/29 06:12:00;;;;;;;5.28;4.65;;;;;;;;;;13006722;22;20358;-94
2023/07/29 06:17:02;;;;;;;6.47;4.90;;;;;;;;;;12985517;22;20799;-94
2023/07/29 06:22:05;;;;;;;7.40;5.30;;;;;;;;;;13010222;22;20362;-94
2023/07/29 06:27:09;;;;;;;7.00;4.60;;;;;;;;;;12987569;22;20358;-96
2023/07/29 06:32:11;;;;;;;6.00;4.60;;;;;;;;;;12988443;22;20370;-94
2023/07/29 06:37:13;;;;;;;6.00;4.45;;;;;;;;;;12986785;22;20436;-93
2023/07/29 06:42:17;;;;;;;5.07;4.57;;;;;;;;;;12988166;22;20375;-95
2023/07/29 06:47:19;;;;;;;6.10;4.47;;;;;;;;;;12989531;22;20359;-95
2023/07/29 06:52:22;;;;;;;4.45;4.05;;;;;;;;;;12985087;22;20397;-94
2023/07/29 06:57:25;;;;;;;6.32;4.40;;;;;;;;;;12984452;22;20354;-94
2023/07/29 07:02:28;;;;;;;5.20;3.42;;;;;;;;;;12984245;22;20379;-93
2023/07/29 07:07:30;;;;;;;7.72;3.97;;;;;;;;;;12986773;22;20393;-95
2023/07/29 07:12:34;;;;;;;5.50;3.80;;;;;;;;;;12986049;22;20358;-93
2023/07/29 07:17:36;;;;;;;4.47;3.33;;;;;;;;;;12986345;22;20367;-95
2023/07/29 07:22:39;;;;;;;3.60;3.15;;;;;;;;;;12987358;22;20383;-95
2023/07/29 07:27:42;;;;;;;4.88;4.03;;;;;;;;;;12992832;22;20366;-96
2023/07/29 07:32:45;;;;;;;5.40;3.70;;;;;;;;;;13010439;22;20366;-94
2023/07/29 07:37:47;;;;;;;5.47;3.90;;;;;;;;;;12994782;22;20394;-96
2023/07/29 07:42:51;;;;;;;4.30;3.37;;;;;;;;;;12990357;22;20390;-95
2023/07/29 07:47:54;;;;;;;3.30;2.83;;;;;;;;;;12993081;22;20413;-96
2023/07/29 07:52:56;;;;;;;5.30;3.40;;;;;;;;;;12995782;22;20418;-96
2023/07/29 07:57:59;;;;;;;4.60;3.30;;;;;;;;;;12992520;22;20416;-96
2023/07/29 08:03:02;;;;;;;3.50;2.70;;;;;;;;;;12990591;22;20378;-95
2023/07/29 08:08:04;;;;;;;3.80;2.70;;;;;;;;;;12994300;22;20429;-95
2023/07/29 08:13:08;;;;;;;4.20;2.95;;;;;;;;;;12996182;22;20389;-96
2023/07/29 08:18:10;;;;;;;4.78;2.80;;;;;;;;;;12994375;22;20366;-96
2023/07/29 08:23:13;;;;;;;5.63;2.72;;;;;;;;;;12994267;22;20378;-96
2023/07/29 08:28:16;;;;;;;3.33;2.20;;;;;;;;;;13017649;22;20370;-96
2023/07/29 08:33:19;;;;;;;6.13;2.20;;;;;;;;;;12998733;22;20366;-96
2023/07/29 08:38:21;;;;;;;3.23;2.23;;;;;;;;;;12998691;22;20984;-96
2023/07/29 08:43:30;;;;;;;3.00;2.22;;;;;;;;;;12998449;22;20476;-95
2023/07/29 08:48:39;;;;;;;4.23;2.10;;;;;;;;;;13000055;22;20405;-95
2023/07/29 08:53:41;;;;;;;2.85;1.90;;;;;;;;;;13003564;22;20363;-95
2023/07/29 09:54:06;;;;;;;4.85;2.70;;;;;;;;;;12831067;22;20445;-95
2023/07/29 09:59:09;;;;;;;5.63;2.78;;;;;;;;;;12927197;23;20395;-95
2023/07/29 10:04:12;;;;;;;5.72;3.00;;;;;;;;;;12927140;23;20438;-95
2023/07/29 10:09:16;;;;;;;5.17;2.87;;;;;;;;;;12930725;23;20369;-96
2023/07/29 10:14:19;;;;;;;5.03;2.90;;;;;;;;;;12929787;23;20403;-95
2023/07/29 10:19:23;;;;;;;4.88;2.65;;;;;;;;;;12931553;23;20360;-96
2023/07/29 10:24:31;;;;;;;8.93;2.80;;;;;;;;;;12932559;23;20416;-95
2023/07/29 10:29:39;;;;;;;4.27;3.00;;;;;;;;;;12958760;22;20356;-95
2023/07/29 10:34:43;;;;;;;5.87;3.27;;;;;;;;;;12932823;22;20373;-96
2023/07/29 10:39:56;;;;;;;6.03;3.50;;;;;;;;;;12929580;23;20399;-95
2023/07/29 10:44:58;;;;;;;4.68;3.22;;;;;;;;;;12926991;23;20415;-96
2023/07/29 10:50:00;;;;;;;5.10;3.40;;;;;;;;;;12930548;23;20357;-95
2023/07/29 10:55:23;;;;;;;3.55;3.10;;;;;;;;;;12934528;23;20372;-96
2023/07/29 11:00:31;;;;;;;3.40;3.03;;;;;;;;;;12930439;23;20360;-95
2023/07/29 11:05:45;;;;;;;4.97;3.13;;;;;;;;;;12932131;23;20388;-94
2023/07/29 11:11:01;;;;;;;5.97;3.63;;;;;;;;;;12934660;23;20360;-96
2023/07/29 11:16:05;;;;;;;4.63;3.00;;;;;;;;;;12935165;23;20361;-96
2023/07/29 11:21:07;;;;;;;4.78;3.20;;;;;;;;;;12934026;23;20368;-95
2023/07/29 11:26:11;;;;;;;3.55;3.03;;;;;;;;;;12935139;23;20388;-94
2023/07/29 11:31:14;;;;;;;4.03;3.07;;;;;;;;;;12936830;23;20875;-95
2023/07/29 11:36:20;;;;;;;4.03;3.50;;;;;;;;;;12931546;23;20368;-95
2023/07/29 11:41:24;;;;;;;6.07;3.35;;;;;;;;;;12937373;23;20693;-95
2023/07/29 11:46:26;;;;;;;5.90;3.30;;;;;;;;;;12934135;23;20384;-96
2023/07/29 11:51:29;;;;;;;7.20;3.47;;;;;;;;;;12932807;23;20736;-95
2023/07/29 11:56:33;;;;;;;5.47;3.43;;;;;;;;;;12931260;23;20372;-95
2023/07/29 12:01:36;;;;;;;4.80;3.65;;;;;;;;;;12936208;23;20404;-95
2023/07/29 12:06:40;;;;;;;4.13;3.23;;;;;;;;;;12939343;23;20415;-95
2023/07/29 12:11:44;;;;;;;4.15;3.30;;;;;;;;;;12939675;23;20369;-95
2023/07/29 12:16:51;;;;;;;6.13;3.60;;;;;;;;;;12939084;23;20360;-93
2023/07/29 12:21:54;;;;;;;5.53;3.25;;;;;;;;;;12937906;23;20369;-95
2023/07/29 12:26:58;;;;;;;4.93;3.15;;;;;;;;;;12937161;23;20381;-96
2023/07/29 12:32:02;;;;;;;5.27;3.30;;;;;;;;;;12938005;23;20368;-96
2023/07/29 12:37:05;;;;;;;4.40;3.17;;;;;;;;;;12936962;23;20396;-96
2023/07/29 12:42:09;;;;;;;3.37;2.90;;;;;;;;;;12940252;23;20415;-95
2023/07/29 12:47:11;;;;;;;4.60;3.35;;;;;;;;;;12946488;23;20384;-96
2023/07/29 12:52:14;;;;;;;6.93;3.30;;;;;;;;;;12945740;23;20404;-96
2023/07/29 12:57:17;;;;;;;5.90;3.20;;;;;;;;;;12938355;23;20369;-96
2023/07/29 13:02:20;;;;;;;5.43;3.45;;;;;;;;;;12962549;23;20693;-96
2023/07/29 13:07:22;;;;;;;3.85;3.42;;;;;;;;;;12939694;23;20420;-96
2023/07/29 13:12:26;;;;;;;5.00;3.20;;;;;;;;;;12941135;23;20368;-94
2023/07/29 13:17:28;;;;;;;4.50;3.20;;;;;;;;;;12937838;23;20361;-95
2023/07/29 13:22:30;;;;;;;5.28;3.90;;;;;;;;;;12939229;23;20368;-96
2023/07/29 13:27:34;;;;;;;6.13;3.42;;;;;;;;;;12936783;23;20407;-95
2023/07/29 13:32:36;;;;;;;3.67;3.22;;;;;;;;;;12940520;23;20361;-95
2023/07/29 13:37:39;;;;;;;3.45;3.13;;;;;;;;;;12943232;23;20396;-96
2023/07/29 13:42:42;;;;;;;3.70;3.30;;;;;;;;;;12942259;23;20392;-95
2023/07/29 13:47:45;;;;;;;4.18;3.40;;;;;;;;;;12941500;23;20388;-94
2023/07/29 13:52:49;;;;;;;4.00;3.20;;;;;;;;;;12939594;23;20450;-95
2023/07/29 13:57:53;;;;;;;3.80;3.20;;;;;;;;;;12956129;22;20356;-95
2023/07/29 14:02:55;;;;;;;3.20;2.90;;;;;;;;;;12940005;22;20373;-96
2023/07/29 14:07:58;;;;;;;4.50;3.10;;;;;;;;;;12942339;23;20383;-96
2023/07/29 14:13:01;;;;;;;6.75;3.38;;;;;;;;;;12969492;23;20391;-96
2023/07/29 14:18:04;;;;;;;4.55;3.08;;;;;;;;;;12968092;23;20352;-95
2023/07/29 14:23:06;;;;;;;6.22;3.22;;;;;;;;;;12964283;23;20360;-96
2023/07/29 14:28:10;;;;;;;4.40;3.20;;;;;;;;;;12962524;23;20380;-96
2023/07/29 14:33:13;;;;;;;3.90;3.22;;;;;;;;;;12967578;23;20368;-96
2023/07/29 14:38:15;;;;;;;5.30;3.13;;;;;;;;;;12968720;23;20828;-96
2023/07/29 14:43:19;;;;;;;4.85;3.00;;;;;;;;;;12969343;23;20364;-96
2023/07/29 14:48:21;;;;;;;5.20;3.05;;;;;;;;;;12970617;23;20407;-96
2023/07/29 14:53:24;;;;;;;3.65;3.05;;;;;;;;;;12970363;23;20438;-96
2023/07/29 14:58:27;;;;;;;3.70;3.00;;;;;;;;;;12969983;23;20364;-96
2023/07/29 15:03:30;;;;;;;4.00;3.47;;;;;;;;;;12969112;23;20392;-96
2023/07/29 15:08:32;;;;;;;5.60;3.28;;;;;;;;;;12966993;23;20377;-96
2023/07/29 15:13:36;;;;;;;4.87;3.13;;;;;;;;;;12988144;23;20372;-96
2023/07/29 15:18:38;;;;;;;3.80;3.33;;;;;;;;;;12966004;23;20360;-96
2023/07/29 15:23:40;;;;;;;4.90;3.07;;;;;;;;;;12962019;23;20364;-96
2023/07/29 15:28:44;;;;;;;3.00;2.80;;;;;;;;;;12964805;23;20380;-96
2023/07/29 15:33:46;;;;;;;4.28;3.10;;;;;;;;;;12967445;23;20514;-96
2023/07/29 15:38:49;;;;;;;7.82;3.08;;;;;;;;;;12967238;23;20391;-95
2023/07/29 15:43:54;;;;;;;4.85;3.10;;;;;;;;;;12967970;23;20360;-96
2023/07/29 15:48:59;;;;;;;5.00;3.13;;;;;;;;;;12963008;23;20415;-96
2023/07/29 15:54:01;;;;;;;4.00;3.00;;;;;;;;;;12957466;23;20361;-96
2023/07/29 15:59:05;;;;;;;4.72;2.92;;;;;;;;;;12954633;23;20361;-96
2023/07/29 16:04:07;;;;;;;3.20;2.87;;;;;;;;;;12956882;23;20396;-96
2023/07/29 16:09:10;;;;;;;3.83;3.10;;;;;;;;;;12962143;23;20414;-96
2023/07/29 16:14:13;;;;;;;4.72;3.40;;;;;;;;;;12961083;23;20364;-96
2023/07/29 16:19:24;;;;;;;3.55;3.08;;;;;;;;;;12962330;22;20402;-96
2023/07/29 16:24:26;;;;;;;4.40;3.20;;;;;;;;;;12958751;23;20399;-96
2023/07/29 16:29:30;;;;;;;4.60;3.30;;;;;;;;;;12959813;23;20361;-96
2023/07/29 16:34:32;;;;;;;6.85;3.50;;;;;;;;;;12982363;23;20372;-96
2023/07/29 16:39:36;;;;;;;3.65;3.22;;;;;;;;;;12959800;23;20368;-96
2023/07/29 16:44:40;;;;;;;4.13;3.15;;;;;;;;;;12961091;23;20467;-96
2023/07/29 16:49:42;;;;;;;4.63;3.17;;;;;;;;;;12964737;23;20391;-96
2023/07/29 16:54:45;;;;;;;5.22;3.40;;;;;;;;;;12962271;23;20403;-96
2023/07/29 16:59:48;;;;;;;5.75;3.55;;;;;;;;;;12959409;23;20368;-96
2023/07/29 17:04:51;;;;;;;6.37;3.50;;;;;;;;;;12957181;23;20345;-96
2023/07/29 17:09:53;;;;;;;5.78;3.30;;;;;;;;;;12958082;23;20394;-96
2023/07/29 17:14:57;;;;;;;4.53;3.40;;;;;;;;;;13000083;22;20696;-96
2023/07/29 17:19:59;;;;;;;5.13;3.47;;;;;;;;;;13001168;22;20363;-96
2023/07/29 17:25:01;;;;;;;5.27;3.57;;;;;;;;;;12999873;22;20367;-95
2023/07/29 17:30:07;;;;;;;6.30;3.60;;;;;;;;;;13002328;22;20370;-96
2023/07/29 17:35:09;;;;;;;4.78;3.47;;;;;;;;;;12996187;22;20439;-96
2023/07/29 17:40:12;;;;;;;5.20;3.60;;;;;;;;;;12994989;22;20363;-96
2023/07/29 17:45:16;;;;;;;6.80;3.65;;;;;;;;;;12994923;22;20378;-96
2023/07/29 17:50:19;;;;;;;4.95;3.55;;;;;;;;;;12995358;22;20397;-95
2023/07/29 17:55:21;;;;;;;7.07;3.90;;;;;;;;;;12994544;22;20404;-96
2023/07/29 18:00:25;;;;;;;8.25;3.90;;;;;;;;;;12993870;22;20366;-96
2023/07/29 18:05:27;;;;;;;8.25;4.30;;;;;;;;;;12992482;22;20830;-96
2023/07/29 18:10:30;;;;;;;6.15;4.20;;;;;;;;;;12993017;22;20366;-95
2023/07/29 18:15:34;;;;;;;5.83;4.13;;;;;;;;;;13002182;22;20359;-96
2023/07/29 18:20:37;;;;;;;8.20;3.60;;;;;;;;;;12999728;22;20367;-95
2023/07/29 18:25:39;;;;;;;6.00;3.87;;;;;;;;;;13000323;22;20382;-95
2023/07/29 18:30:44;;;;;;;5.80;3.60;;;;;;;;;;13001019;22;20409;-95
2023/07/29 18:35:46;;;;;;;5.55;3.70;;;;;;;;;;12998966;22;20428;-95
2023/07/29 18:40:48;;;;;;;4.72;3.20;;;;;;;;;;12997334;22;20358;-96
2023/07/29 18:45:52;;;;;;;4.18;3.25;;;;;;;;;;12996883;22;20504;-96
2023/07/29 18:50:54;;;;;;;4.80;3.60;;;;;;;;;;12997196;22;20358;-96
2023/07/29 18:55:57;;;;;;;6.30;3.70;;;;;;;;;;12996916;22;20366;-95
2023/07/29 19:01:00;;;;;;;6.33;3.90;;;;;;;;;;12996509;22;20370;-95
2023/07/29 19:06:03;;;;;;;6.40;4.40;;;;;;;;;;12996636;22;20412;-94
2023/07/29 19:11:05;;;;;;;6.82;4.45;;;;;;;;;;12997726;22;20397;-95
2023/07/29 19:16:09;;;;;;;5.53;4.07;;;;;;;;;;12997140;22;20397;-94
2023/07/29 19:21:11;;;;;;;6.03;3.70;;;;;;;;;;12996344;22;20358;-96
2023/07/29 19:26:15;;;;;;;6.78;3.63;;;;;;;;;;13024408;22;20396;-96
2023/07/29 19:31:19;;;;;;;5.17;4.13;;;;;;;;;;13034034;22;20359;-96
2023/07/29 19:36:21;;;;;;;7.72;5.50;;;;;;;;;;13036513;22;20378;-96
2023/07/29 19:41:25;;;;;;;5.28;3.92;;;;;;;;;;13035339;22;20388;-96
2023/07/29 19:46:29;;;;;;;7.30;4.25;;;;;;;;;;13037364;22;20371;-95
2023/07/29 19:51:31;;;;;;;6.60;4.07;;;;;;;;;;13028230;22;20363;-96
2023/07/29 19:56:34;;;;;;;5.30;4.07;;;;;;;;;;13017333;22;20855;-96
2023/07/29 20:01:40;;;;;;;5.03;4.03;;;;;;;;;;13046755;22;20383;-96
2023/07/29 20:06:42;;;;;;;9.25;6.22;;;;;;;;;;13020812;22;20382;-96
2023/07/29 20:11:44;;;;;;;5.28;3.92;;;;;;;;;;13031622;22;20404;-96
2023/07/29 20:16:48;;;;;;;5.10;4.22;;;;;;;;;;13016789;22;20379;-96
2023/07/29 20:21:50;;;;;;;5.37;4.40;;;;;;;;;;13011323;22;20466;-96
2023/07/29 20:26:53;;;;;;;6.35;4.05;;;;;;;;;;13016517;22;20382;-96
2023/07/29 20:31:56;;;;;;;6.53;4.15;;;;;;;;;;13013520;22;20448;-96
2023/07/29 20:36:59;;;;;;;7.60;5.23;;;;;;;;;;13006980;22;20408;-96
2023/07/29 20:42:01;;;;;;;7.10;4.90;;;;;;;;;;13010968;22;20374;-96
2023/07/29 20:47:05;;;;;;;8.02;5.65;;;;;;;;;;13019669;22;20378;-95
2023/07/29 20:52:08;;;;;;;8.15;6.05;;;;;;;;;;12991457;22;20397;-96
2023/07/29 20:57:10;;;;;;;9.50;7.20;;;;;;;;;;12988279;22;20436;-96
2023/07/29 21:02:14;;;;;;;11.18;6.55;;;;;;;;;;12989094;22;20390;-95
2023/07/29 21:07:16;;;;;;;8.70;6.78;;;;;;;;;;12990052;22;20440;-96
2023/07/29 21:12:19;;;;;;;9.35;6.43;;;;;;;;;;12988083;22;20417;-96
2023/07/29 21:17:23;;;;;;;10.38;6.10;;;;;;;;;;12991523;22;20436;-95
2023/07/29 21:22:25;;;;;;;8.07;6.25;;;;;;;;;;12991115;22;20378;-96
2023/07/29 21:27:27;;;;;;;8.73;6.78;;;;;;;;;;12986085;22;20378;-96
2023/07/29 21:32:31;;;;;;;9.90;7.05;;;;;;;;;;12988745;22;20440;-96
2023/07/29 21:37:33;;;;;;;10.40;6.60;;;;;;;;;;12986463;22;20374;-96
2023/07/29 22:20:17;;;;;;;9.00;6.30;;;;;;;;;;13010786;22;20405;-96
2023/07/29 22:25:20;;;;;;;8.93;6.93;;;;;;;;;;13000360;22;20359;-91
2023/07/29 22:30:22;;;;;;;9.07;7.10;;;;;;;;;;13000866;22;20416;-96
2023/07/29 22:35:28;;;;;;;10.18;6.55;;;;;;;;;;12997850;22;20367;-95
2023/07/29 22:40:30;;;;;;;7.97;6.23;;;;;;;;;;12993012;22;20363;-96
2023/07/29 22:45:33;;;;;;;8.40;6.40;;;;;;;;;;12990985;22;20390;-95
2023/07/29 22:50:36;;;;;;;10.15;7.20;;;;;;;;;;12992834;22;20383;-95
2023/07/29 22:55:39;;;;;;;8.00;6.63;;;;;;;;;;12990448;22;20765;-95
2023/07/29 23:00:43;;;;;;;8.97;6.87;;;;;;;;;;12993617;22;20370;-95
2023/07/29 23:05:46;;;;;;;9.52;6.82;;;;;;;;;;12995041;22;20412;-95
2023/07/29 23:10:49;;;;;;;8.70;6.75;;;;;;;;;;12993201;22;20390;-95
2023/07/29 23:15:52;;;;;;;7.97;6.60;;;;;;;;;;12995877;22;20355;-95
2023/07/29 23:20:56;;;;;;;8.27;6.30;;;;;;;;;;13015982;22;20425;-95
2023/07/29 23:25:58;;;;;;;7.07;6.20;;;;;;;;;;12998970;22;20355;-95
2023/07/29 23:31:01;;;;;;;7.53;6.57;;;;;;;;;;12999463;22;20436;-95
2023/07/29 23:36:05;;;;;;;7.50;6.30;;;;;;;;;;12996458;22;20429;-96
2023/07/29 23:41:07;;;;;;;8.43;6.70;;;;;;;;;;13016903;22;20393;-95
2023/07/29 23:46:10;;;;;;;7.88;7.07;;;;;;;;;;12995785;22;20417;-95
2023/07/29 23:51:13;;;;;;;9.13;7.40;;;;;;;;;;13000430;22;20383;-94
2023/07/29 23:56:16;;;;;;;10.32;7.72;;;;;;;;;;13013690;22;20367;-96
